17:53
Airports
Links
Donate
Help keep this website running!
PayPal
Bitcoin
METAR
EBBR 181720Z 27002KT 9999 FEW047 06/01 Q1002 TEMPO 4000 SHRA BKN008
Current Weather Conditions at EBBR
VFR 17:20:00 18-01-18
Altimeter:29.59 hg
Temp:6.0°c 43°f
Dew point:1.0°c 34°f
Wind:2 knots, 2.3 mph, 1 m/s, from 270°
Visibility:6.21 statute miles
4700(FEW) A few
Past METAR reports
VFR 16:50:00 18-01-18
Altimeter:29.59 hg
Temp:6.0°c 43°f
Dew point:2.0°c 36°f
Wind:5 knots, 5.8 mph, 3 m/s, from 260°
Visibility:6.21 statute miles
4200(SCT) Scattered
EBBR 181650Z 26005KT 9999 SCT042 06/02 Q1002 TEMPO 3500 SHRA
VFR 16:20:00 18-01-18
Altimeter:29.59 hg
Temp:6.0°c 43°f
Dew point:1.0°c 34°f
Wind:6 knots, 6.9 mph, 3 m/s, from 270°
Visibility:6.21 statute miles
3600(FEW) A few
EBBR 181620Z 27006KT 9999 FEW036 06/01 Q1002 TEMPO 3500 SHRA
VFR 15:50:00 18-01-18
Altimeter:29.59 hg
Temp:7.0°c 45°f
Dew point:1.0°c 34°f
Wind:7 knots, 8.1 mph, 4 m/s, from 300°
Visibility:6.21 statute miles
3700(SCT) Scattered
No significant weather changes expected within 2 hours.
EBBR 181550Z 30007KT 9999 SCT037 07/01 Q1002 NOSIG
VFR 15:20:00 18-01-18
Altimeter:29.59 hg
Temp:7.0°c 45°f
Dew point:0.0°c 32°f
Wind:13 knots, 15 mph, 7 m/s, from 280°
Visibility:6.21 statute miles
3600(BKN) Broken
No significant weather changes expected within 2 hours.
EBBR 181520Z 28013KT 9999 BKN036 07/00 Q1002 NOSIG
VFR 14:50:00 18-01-18
Altimeter:29.59 hg
Temp:7.0°c 45°f
Dew point:1.0°c 34°f
Wind:13 knots, 15 mph, 7 m/s, from 260°
Visibility:6.21 statute miles
(CAVOK)
No significant weather changes expected within 2 hours.
EBBR 181450Z 26013KT CAVOK 07/01 Q1002 NOSIG
VFR 14:20:00 18-01-18
Altimeter:29.59 hg
Temp:7.0°c 45°f
Dew point:0.0°c 32°f
Wind:13 knots, 15 mph, 7 m/s, from 280°
Visibility:6.21 statute miles
3800(FEW) A few
No significant weather changes expected within 2 hours.
EBBR 181420Z 28013KT 9999 FEW038 07/M00 Q1002 NOSIG
TAF
TAF EBBR 181711Z 1818/1924 25010KT 9999 SCT020 TEMPO 1818/1904 30015G25KT 4000 SHRA BKN008 BKN012CB PROB30 TEMPO 1818/1904 2500 SHRAGS PROB30 TEMPO 1916/1921 4000 SHRA
Forecast at EBBR
TEMPO 18:00 18-01-18 to 04:00 19-01-18
SHRA
Wind:15 Knots from 300°
Visibility:2.49 statute miles
800BKN Broken
1200BKN Broken
TEMPO 18:00 18-01-18 to 04:00 19-01-18
30% SHRA SHGS
Visibility:1.55 statute miles
18:00 18-01-18 to 00:00 20-01-18
Wind:10 Knots from 250°
Visibility:6.21 statute miles
2000SCT Scattered
TEMPO 16:00 19-01-18 to 21:00 19-01-18
30% SHRA
Visibility:2.49 statute miles